sensor_id;sensor_type;location;lat;lon;timestamp;temperature;humidity
44117;DHT22;29781;49.480;8.512;2022-09-09T00:04:38;18.20;99.90
44117;DHT22;29781;49.480;8.512;2022-09-09T00:07:21;18.20;99.90
44117;DHT22;29781;49.480;8.512;2022-09-09T00:15:21;18.10;99.90
44117;DHT22;29781;49.480;8.512;2022-09-09T00:18:11;18.10;99.90
44117;DHT22;29781;49.480;8.512;2022-09-09T00:23:29;18.10;99.90
44117;DHT22;29781;49.480;8.512;2022-09-09T00:28:42;18.10;99.90
44117;DHT22;29781;49.480;8.512;2022-09-09T00:31:13;18.10;99.90
44117;DHT22;29781;49.480;8.512;2022-09-09T00:33:41;18.10;99.90
44117;DHT22;29781;49.480;8.512;2022-09-09T00:36:17;18.00;99.90
44117;DHT22;29781;49.480;8.512;2022-09-09T00:38:48;18.00;99.90
44117;DHT22;29781;49.480;8.512;2022-09-09T00:46:46;17.90;99.90
44117;DHT22;29781;49.480;8.512;2022-09-09T00:52:28;17.80;99.90
44117;DHT22;29781;49.480;8.512;2022-09-09T00:57:52;17.90;99.90
44117;DHT22;29781;49.480;8.512;2022-09-09T01:00:26;17.90;99.90
44117;DHT22;29781;49.480;8.512;2022-09-09T01:05:46;17.90;99.90
44117;DHT22;29781;49.480;8.512;2022-09-09T01:11:21;17.90;99.90
44117;DHT22;29781;49.480;8.512;2022-09-09T01:13:58;18.00;99.90
44117;DHT22;29781;49.480;8.512;2022-09-09T01:16:26;17.90;99.90
44117;DHT22;29781;49.480;8.512;2022-09-09T01:18:54;17.90;99.90
44117;DHT22;29781;49.480;8.512;2022-09-09T01:24:08;17.70;99.90
44117;DHT22;29781;49.480;8.512;2022-09-09T01:26:43;17.70;99.90
44117;DHT22;29781;49.480;8.512;2022-09-09T01:29:11;17.70;99.90
44117;DHT22;29781;49.480;8.512;2022-09-09T01:31:51;17.60;99.90
44117;DHT22;29781;49.480;8.512;2022-09-09T01:34:17;17.60;99.90
44117;DHT22;29781;49.480;8.512;2022-09-09T01:36:52;17.60;99.90
44117;DHT22;29781;49.480;8.512;2022-09-09T01:39:20;17.60;99.90
44117;DHT22;29781;49.480;8.512;2022-09-09T01:41:46;17.60;99.90
44117;DHT22;29781;49.480;8.512;2022-09-09T01:44:12;17.70;99.90
44117;DHT22;29781;49.480;8.512;2022-09-09T01:46:38;17.60;99.90
44117;DHT22;29781;49.480;8.512;2022-09-09T01:49:06;17.70;99.90
44117;DHT22;29781;49.480;8.512;2022-09-09T01:51:33;17.70;99.90
44117;DHT22;29781;49.480;8.512;2022-09-09T01:53:59;17.60;99.90
44117;DHT22;29781;49.480;8.512;2022-09-09T01:56:36;17.70;99.90
44117;DHT22;29781;49.480;8.512;2022-09-09T02:07:03;17.70;99.90
44117;DHT22;29781;49.480;8.512;2022-09-09T02:09:31;17.80;99.90
44117;DHT22;29781;49.480;8.512;2022-09-09T02:12:13;17.80;99.90
44117;DHT22;29781;49.480;8.512;2022-09-09T02:14:42;17.80;99.90
44117;DHT22;29781;49.480;8.512;2022-09-09T02:17:15;17.80;99.90
44117;DHT22;29781;49.480;8.512;2022-09-09T02:19:47;17.90;99.90
44117;DHT22;29781;49.480;8.512;2022-09-09T02:22:17;17.90;99.90
44117;DHT22;29781;49.480;8.512;2022-09-09T02:24:44;17.90;99.90
44117;DHT22;29781;49.480;8.512;2022-09-09T02:27:12;17.90;99.90
44117;DHT22;29781;49.480;8.512;2022-09-09T02:29:41;17.90;99.90
44117;DHT22;29781;49.480;8.512;2022-09-09T02:32:10;17.90;99.90
44117;DHT22;29781;49.480;8.512;2022-09-09T02:34:43;17.90;99.90
44117;DHT22;29781;49.480;8.512;2022-09-09T02:37:10;17.90;99.90
44117;DHT22;29781;49.480;8.512;2022-09-09T02:39:37;17.80;99.90
44117;DHT22;29781;49.480;8.512;2022-09-09T02:42:04;17.80;99.90
44117;DHT22;29781;49.480;8.512;2022-09-09T02:44:30;17.80;99.90
44117;DHT22;29781;49.480;8.512;2022-09-09T02:47:08;17.80;99.90
44117;DHT22;29781;49.480;8.512;2022-09-09T02:52:08;17.90;99.90
44117;DHT22;29781;49.480;8.512;2022-09-09T02:54:41;17.80;99.90
44117;DHT22;29781;49.480;8.512;2022-09-09T02:57:12;17.80;99.90
44117;DHT22;29781;49.480;8.512;2022-09-09T02:59:39;17.80;99.90
44117;DHT22;29781;49.480;8.512;2022-09-09T03:02:05;17.80;99.90
44117;DHT22;29781;49.480;8.512;2022-09-09T03:04:31;17.70;99.90
44117;DHT22;29781;49.480;8.512;2022-09-09T03:06:58;17.70;99.90
44117;DHT22;29781;49.480;8.512;2022-09-09T03:09:24;17.70;99.90
44117;DHT22;29781;49.480;8.512;2022-09-09T03:11:51;17.70;99.90
44117;DHT22;29781;49.480;8.512;2022-09-09T03:14:17;17.70;99.90
44117;DHT22;29781;49.480;8.512;2022-09-09T03:16:46;17.70;99.90
44117;DHT22;29781;49.480;8.512;2022-09-09T03:19:12;17.80;99.90
44117;DHT22;29781;49.480;8.512;2022-09-09T03:21:38;17.70;99.90
44117;DHT22;29781;49.480;8.512;2022-09-09T03:24:04;17.70;99.90
44117;DHT22;29781;49.480;8.512;2022-09-09T03:26:30;17.70;99.90
44117;DHT22;29781;49.480;8.512;2022-09-09T03:28:57;17.80;99.90
44117;DHT22;29781;49.480;8.512;2022-09-09T03:31:22;17.70;99.90
44117;DHT22;29781;49.480;8.512;2022-09-09T03:33:54;17.70;99.90
44117;DHT22;29781;49.480;8.512;2022-09-09T03:36:20;17.70;99.90
44117;DHT22;29781;49.480;8.512;2022-09-09T03:38:45;17.70;99.90
44117;DHT22;29781;49.480;8.512;2022-09-09T03:41:11;17.70;99.90
44117;DHT22;29781;49.480;8.512;2022-09-09T03:43:38;17.60;99.90
44117;DHT22;29781;49.480;8.512;2022-09-09T03:46:03;17.60;99.90
44117;DHT22;29781;49.480;8.512;2022-09-09T03:48:29;17.60;99.90
44117;DHT22;29781;49.480;8.512;2022-09-09T03:50:55;17.60;99.90
44117;DHT22;29781;49.480;8.512;2022-09-09T03:53:26;17.60;99.90
44117;DHT22;29781;49.480;8.512;2022-09-09T03:55:54;17.50;99.90
44117;DHT22;29781;49.480;8.512;2022-09-09T03:58:22;17.50;99.90
44117;DHT22;29781;49.480;8.512;2022-09-09T04:01:08;17.50;99.90
44117;DHT22;29781;49.480;8.512;2022-09-09T04:03:34;17.50;99.90
44117;DHT22;29781;49.480;8.512;2022-09-09T04:06:01;17.50;99.90
44117;DHT22;29781;49.480;8.512;2022-09-09T04:08:28;17.40;99.90
44117;DHT22;29781;49.480;8.512;2022-09-09T04:10:55;17.40;99.90
44117;DHT22;29781;49.480;8.512;2022-09-09T04:13:24;17.40;99.90
44117;DHT22;29781;49.480;8.512;2022-09-09T04:15:54;17.40;99.90
44117;DHT22;29781;49.480;8.512;2022-09-09T04:18:20;17.30;99.90
44117;DHT22;29781;49.480;8.512;2022-09-09T04:20:47;17.30;99.90
44117;DHT22;29781;49.480;8.512;2022-09-09T04:23:14;17.30;99.90
44117;DHT22;29781;49.480;8.512;2022-09-09T04:25:47;17.20;99.90
44117;DHT22;29781;49.480;8.512;2022-09-09T04:28:17;17.20;99.90
44117;DHT22;29781;49.480;8.512;2022-09-09T04:30:44;17.20;99.90
44117;DHT22;29781;49.480;8.512;2022-09-09T04:33:10;17.20;99.90
44117;DHT22;29781;49.480;8.512;2022-09-09T04:35:37;17.20;99.90
44117;DHT22;29781;49.480;8.512;2022-09-09T04:38:04;17.20;99.90
44117;DHT22;29781;49.480;8.512;2022-09-09T04:40:30;17.20;99.90
44117;DHT22;29781;49.480;8.512;2022-09-09T04:43:00;17.20;99.90
44117;DHT22;29781;49.480;8.512;2022-09-09T04:45:26;17.20;99.90
44117;DHT22;29781;49.480;8.512;2022-09-09T04:47:52;17.10;99.90
44117;DHT22;29781;49.480;8.512;2022-09-09T04:50:18;17.20;99.90
44117;DHT22;29781;49.480;8.512;2022-09-09T04:52:44;17.20;99.90
44117;DHT22;29781;49.480;8.512;2022-09-09T04:55:10;17.20;99.90
44117;DHT22;29781;49.480;8.512;2022-09-09T04:57:35;17.20;99.90
44117;DHT22;29781;49.480;8.512;2022-09-09T05:00:01;17.20;99.90
44117;DHT22;29781;49.480;8.512;2022-09-09T05:02:27;17.20;99.90
44117;DHT22;29781;49.480;8.512;2022-09-09T05:04:53;17.20;99.90
44117;DHT22;29781;49.480;8.512;2022-09-09T05:07:19;17.20;99.90
44117;DHT22;29781;49.480;8.512;2022-09-09T05:09:44;17.20;99.90
44117;DHT22;29781;49.480;8.512;2022-09-09T05:12:11;17.20;99.90
44117;DHT22;29781;49.480;8.512;2022-09-09T05:14:36;17.20;99.90
44117;DHT22;29781;49.480;8.512;2022-09-09T05:17:03;17.20;99.90
44117;DHT22;29781;49.480;8.512;2022-09-09T05:19:28;17.20;99.90
44117;DHT22;29781;49.480;8.512;2022-09-09T05:21:55;17.20;99.90
44117;DHT22;29781;49.480;8.512;2022-09-09T05:24:22;17.20;99.90
44117;DHT22;29781;49.480;8.512;2022-09-09T05:26:48;17.20;99.90
44117;DHT22;29781;49.480;8.512;2022-09-09T05:29:14;17.20;99.90
44117;DHT22;29781;49.480;8.512;2022-09-09T05:31:40;17.30;99.90
44117;DHT22;29781;49.480;8.512;2022-09-09T05:34:06;17.20;99.90
44117;DHT22;29781;49.480;8.512;2022-09-09T05:36:32;17.20;99.90
44117;DHT22;29781;49.480;8.512;2022-09-09T05:38:58;17.20;99.90
44117;DHT22;29781;49.480;8.512;2022-09-09T05:41:23;17.30;99.90
44117;DHT22;29781;49.480;8.512;2022-09-09T05:43:49;17.30;99.90
44117;DHT22;29781;49.480;8.512;2022-09-09T05:46:19;17.30;99.90
44117;DHT22;29781;49.480;8.512;2022-09-09T05:48:46;17.30;99.90
44117;DHT22;29781;49.480;8.512;2022-09-09T05:51:15;17.30;99.90
44117;DHT22;29781;49.480;8.512;2022-09-09T05:53:41;17.30;99.90
44117;DHT22;29781;49.480;8.512;2022-09-09T05:56:13;17.40;99.90
44117;DHT22;29781;49.480;8.512;2022-09-09T05:58:39;17.40;99.90
44117;DHT22;29781;49.480;8.512;2022-09-09T06:01:11;17.40;99.90
44117;DHT22;29781;49.480;8.512;2022-09-09T06:03:38;17.40;99.90
44117;DHT22;29781;49.480;8.512;2022-09-09T06:06:06;17.40;99.90
44117;DHT22;29781;49.480;8.512;2022-09-09T06:08:37;17.40;99.90
44117;DHT22;29781;49.480;8.512;2022-09-09T06:11:18;17.40;99.90
44117;DHT22;29781;49.480;8.512;2022-09-09T06:13:44;17.40;99.90
44117;DHT22;29781;49.480;8.512;2022-09-09T06:16:15;17.50;99.90
44117;DHT22;29781;49.480;8.512;2022-09-09T06:18:41;17.50;99.90
44117;DHT22;29781;49.480;8.512;2022-09-09T06:21:15;17.40;99.90
44117;DHT22;29781;49.480;8.512;2022-09-09T06:23:42;17.50;99.90
44117;DHT22;29781;49.480;8.512;2022-09-09T06:26:33;17.50;99.90
44117;DHT22;29781;49.480;8.512;2022-09-09T06:29:00;17.50;99.90
44117;DHT22;29781;49.480;8.512;2022-09-09T06:31:28;17.60;99.90
44117;DHT22;29781;49.480;8.512;2022-09-09T06:33:59;17.60;99.90
44117;DHT22;29781;49.480;8.512;2022-09-09T06:36:32;17.60;99.90
44117;DHT22;29781;49.480;8.512;2022-09-09T06:38:59;17.60;99.90
44117;DHT22;29781;49.480;8.512;2022-09-09T06:41:28;17.60;99.90
44117;DHT22;29781;49.480;8.512;2022-09-09T06:43:55;17.60;99.90
44117;DHT22;29781;49.480;8.512;2022-09-09T06:46:29;17.70;99.90
44117;DHT22;29781;49.480;8.512;2022-09-09T06:48:56;17.70;99.90
44117;DHT22;29781;49.480;8.512;2022-09-09T06:51:27;17.70;99.90
44117;DHT22;29781;49.480;8.512;2022-09-09T06:53:54;17.70;99.90
44117;DHT22;29781;49.480;8.512;2022-09-09T06:56:32;17.70;99.90
44117;DHT22;29781;49.480;8.512;2022-09-09T06:58:59;17.70;99.90
44117;DHT22;29781;49.480;8.512;2022-09-09T07:01:34;17.70;99.90
44117;DHT22;29781;49.480;8.512;2022-09-09T07:04:00;17.70;99.90
44117;DHT22;29781;49.480;8.512;2022-09-09T07:06:33;17.70;99.90
44117;DHT22;29781;49.480;8.512;2022-09-09T07:09:02;17.70;99.90
44117;DHT22;29781;49.480;8.512;2022-09-09T07:11:31;17.80;99.90
44117;DHT22;29781;49.480;8.512;2022-09-09T07:13:58;17.80;99.90
44117;DHT22;29781;49.480;8.512;2022-09-09T07:16:25;17.80;99.90
44117;DHT22;29781;49.480;8.512;2022-09-09T07:18:51;17.90;99.90
44117;DHT22;29781;49.480;8.512;2022-09-09T07:21:18;17.90;99.90
44117;DHT22;29781;49.480;8.512;2022-09-09T07:23:45;18.00;99.90
44117;DHT22;29781;49.480;8.512;2022-09-09T07:26:16;18.10;99.90
44117;DHT22;29781;49.480;8.512;2022-09-09T07:28:42;18.20;99.90
44117;DHT22;29781;49.480;8.512;2022-09-09T07:31:14;18.20;99.90
44117;DHT22;29781;49.480;8.512;2022-09-09T07:33:42;18.20;99.90
44117;DHT22;29781;49.480;8.512;2022-09-09T07:36:12;18.20;99.90
44117;DHT22;29781;49.480;8.512;2022-09-09T07:38:45;18.20;99.90
44117;DHT22;29781;49.480;8.512;2022-09-09T07:41:15;18.30;99.90
44117;DHT22;29781;49.480;8.512;2022-09-09T07:43:43;18.30;99.90
44117;DHT22;29781;49.480;8.512;2022-09-09T07:46:10;18.30;99.90
44117;DHT22;29781;49.480;8.512;2022-09-09T07:48:36;18.30;99.90
44117;DHT22;29781;49.480;8.512;2022-09-09T07:51:10;18.40;99.90
44117;DHT22;29781;49.480;8.512;2022-09-09T07:53:38;18.40;99.90
44117;DHT22;29781;49.480;8.512;2022-09-09T07:56:08;18.40;99.90
44117;DHT22;29781;49.480;8.512;2022-09-09T07:58:35;18.40;99.90
44117;DHT22;29781;49.480;8.512;2022-09-09T08:01:16;18.40;99.90
44117;DHT22;29781;49.480;8.512;2022-09-09T08:03:53;18.50;99.90
44117;DHT22;29781;49.480;8.512;2022-09-09T08:06:19;18.50;99.90
44117;DHT22;29781;49.480;8.512;2022-09-09T08:08:44;18.50;99.90
44117;DHT22;29781;49.480;8.512;2022-09-09T08:11:14;18.60;99.90
44117;DHT22;29781;49.480;8.512;2022-09-09T08:13:42;18.60;99.90
44117;DHT22;29781;49.480;8.512;2022-09-09T08:16:17;18.70;99.90
44117;DHT22;29781;49.480;8.512;2022-09-09T08:18:43;18.70;99.90
44117;DHT22;29781;49.480;8.512;2022-09-09T08:21:15;18.70;99.90
44117;DHT22;29781;49.480;8.512;2022-09-09T08:23:44;18.70;99.90
44117;DHT22;29781;49.480;8.512;2022-09-09T08:26:22;18.70;99.90
44117;DHT22;29781;49.480;8.512;2022-09-09T08:28:53;18.70;99.90
44117;DHT22;29781;49.480;8.512;2022-09-09T08:31:39;18.70;99.90
44117;DHT22;29781;49.480;8.512;2022-09-09T08:34:06;18.70;99.90
44117;DHT22;29781;49.480;8.512;2022-09-09T08:36:35;18.70;99.90
44117;DHT22;29781;49.480;8.512;2022-09-09T08:39:04;18.70;99.90
44117;DHT22;29781;49.480;8.512;2022-09-09T08:50:27;18.80;99.90
44117;DHT22;29781;49.480;8.512;2022-09-09T08:55:35;18.90;99.90
44117;DHT22;29781;49.480;8.512;2022-09-09T08:58:29;18.90;99.90
44117;DHT22;29781;49.480;8.512;2022-09-09T09:01:19;19.00;99.90
44117;DHT22;29781;49.480;8.512;2022-09-09T09:11:53;19.20;99.90
44117;DHT22;29781;49.480;8.512;2022-09-09T09:14:24;19.20;99.90
44117;DHT22;29781;49.480;8.512;2022-09-09T09:19:24;19.40;99.90
44117;DHT22;29781;49.480;8.512;2022-09-09T09:24:52;19.80;99.90
44117;DHT22;29781;49.480;8.512;2022-09-09T09:27:35;20.30;99.90
44117;DHT22;29781;49.480;8.512;2022-09-09T09:32:39;20.90;99.90
44117;DHT22;29781;49.480;8.512;2022-09-09T09:35:11;20.90;99.90
44117;DHT22;29781;49.480;8.512;2022-09-09T09:37:37;20.50;99.90
44117;DHT22;29781;49.480;8.512;2022-09-09T09:40:11;20.60;99.90
44117;DHT22;29781;49.480;8.512;2022-09-09T09:42:38;20.50;99.90
44117;DHT22;29781;49.480;8.512;2022-09-09T09:45:35;20.40;99.90
44117;DHT22;29781;49.480;8.512;2022-09-09T09:48:04;20.30;99.90
44117;DHT22;29781;49.480;8.512;2022-09-09T09:50:32;20.20;99.90
44117;DHT22;29781;49.480;8.512;2022-09-09T09:53:04;19.90;99.90
44117;DHT22;29781;49.480;8.512;2022-09-09T09:55:32;19.70;99.90
44117;DHT22;29781;49.480;8.512;2022-09-09T09:58:13;19.60;99.90
44117;DHT22;29781;49.480;8.512;2022-09-09T10:00:48;19.50;99.90
44117;DHT22;29781;49.480;8.512;2022-09-09T10:03:34;19.30;99.90
44117;DHT22;29781;49.480;8.512;2022-09-09T10:06:05;19.10;99.90
44117;DHT22;29781;49.480;8.512;2022-09-09T10:08:34;18.80;99.90
44117;DHT22;29781;49.480;8.512;2022-09-09T10:19:15;17.60;99.90
44117;DHT22;29781;49.480;8.512;2022-09-09T10:35:29;18.30;99.90
44117;DHT22;29781;49.480;8.512;2022-09-09T10:56:59;19.70;99.90
44117;DHT22;29781;49.480;8.512;2022-09-09T10:59:31;19.70;99.90
44117;DHT22;29781;49.480;8.512;2022-09-09T11:02:28;19.80;99.90
44117;DHT22;29781;49.480;8.512;2022-09-09T11:05:05;19.90;99.90
44117;DHT22;29781;49.480;8.512;2022-09-09T11:07:58;20.00;99.90
44117;DHT22;29781;49.480;8.512;2022-09-09T11:12:53;20.20;99.90
44117;DHT22;29781;49.480;8.512;2022-09-09T11:15:49;20.20;99.90
44117;DHT22;29781;49.480;8.512;2022-09-09T11:18:21;20.30;99.90
44117;DHT22;29781;49.480;8.512;2022-09-09T11:20:58;20.20;99.90
44117;DHT22;29781;49.480;8.512;2022-09-09T11:23:30;20.10;99.90
44117;DHT22;29781;49.480;8.512;2022-09-09T11:26:01;20.30;99.90
44117;DHT22;29781;49.480;8.512;2022-09-09T11:28:37;20.40;99.90
44117;DHT22;29781;49.480;8.512;2022-09-09T11:42:19;20.90;99.90
44117;DHT22;29781;49.480;8.512;2022-09-09T11:44:46;20.80;99.90
44117;DHT22;29781;49.480;8.512;2022-09-09T11:47:29;20.80;99.90
44117;DHT22;29781;49.480;8.512;2022-09-09T11:50:26;20.80;99.90
44117;DHT22;29781;49.480;8.512;2022-09-09T11:53:16;20.90;99.90
44117;DHT22;29781;49.480;8.512;2022-09-09T11:55:42;21.00;99.90
44117;DHT22;29781;49.480;8.512;2022-09-09T12:00:41;21.00;99.90
44117;DHT22;29781;49.480;8.512;2022-09-09T12:03:37;20.90;99.90
44117;DHT22;29781;49.480;8.512;2022-09-09T12:06:25;20.90;99.90
44117;DHT22;29781;49.480;8.512;2022-09-09T12:08:57;20.90;99.90
44117;DHT22;29781;49.480;8.512;2022-09-09T12:11:26;20.90;99.90
44117;DHT22;29781;49.480;8.512;2022-09-09T12:13:54;20.80;99.90
44117;DHT22;29781;49.480;8.512;2022-09-09T12:16:35;20.80;99.90
44117;DHT22;29781;49.480;8.512;2022-09-09T12:19:15;20.80;99.90
44117;DHT22;29781;49.480;8.512;2022-09-09T12:24:11;20.60;99.90
44117;DHT22;29781;49.480;8.512;2022-09-09T12:26:44;20.30;99.90
44117;DHT22;29781;49.480;8.512;2022-09-09T12:32:10;19.50;99.90
44117;DHT22;29781;49.480;8.512;2022-09-09T12:34:46;19.40;99.90
44117;DHT22;29781;49.480;8.512;2022-09-09T12:37:41;19.30;99.90
44117;DHT22;29781;49.480;8.512;2022-09-09T12:40:21;19.30;99.90
44117;DHT22;29781;49.480;8.512;2022-09-09T12:42:47;19.00;99.90
44117;DHT22;29781;49.480;8.512;2022-09-09T12:45:24;18.90;99.90
44117;DHT22;29781;49.480;8.512;2022-09-09T12:48:07;19.00;99.90
44117;DHT22;29781;49.480;8.512;2022-09-09T12:50:43;19.00;99.90
44117;DHT22;29781;49.480;8.512;2022-09-09T12:53:45;19.00;99.90
44117;DHT22;29781;49.480;8.512;2022-09-09T12:56:07;19.10;99.90
44117;DHT22;29781;49.480;8.512;2022-09-09T12:58:36;18.70;99.90
44117;DHT22;29781;49.480;8.512;2022-09-09T13:01:03;18.60;99.90
44117;DHT22;29781;49.480;8.512;2022-09-09T13:03:31;18.70;99.90
44117;DHT22;29781;49.480;8.512;2022-09-09T13:06:09;18.90;99.90
44117;DHT22;29781;49.480;8.512;2022-09-09T13:08:36;19.10;99.90
44117;DHT22;29781;49.480;8.512;2022-09-09T13:11:06;19.00;99.90
44117;DHT22;29781;49.480;8.512;2022-09-09T13:16:02;19.20;99.90
44117;DHT22;29781;49.480;8.512;2022-09-09T13:18:36;19.10;99.90
44117;DHT22;29781;49.480;8.512;2022-09-09T13:21:02;19.10;99.90
44117;DHT22;29781;49.480;8.512;2022-09-09T13:23:33;19.00;99.90
44117;DHT22;29781;49.480;8.512;2022-09-09T13:26:05;18.80;99.90
44117;DHT22;29781;49.480;8.512;2022-09-09T13:28:33;18.40;99.90
44117;DHT22;29781;49.480;8.512;2022-09-09T13:31:33;18.20;99.90
44117;DHT22;29781;49.480;8.512;2022-09-09T13:33:59;17.80;99.90
44117;DHT22;29781;49.480;8.512;2022-09-09T13:36:33;17.70;99.90
44117;DHT22;29781;49.480;8.512;2022-09-09T13:39:01;17.50;99.90
44117;DHT22;29781;49.480;8.512;2022-09-09T13:41:32;17.30;99.90
44117;DHT22;29781;49.480;8.512;2022-09-09T13:43:59;17.20;99.90
44117;DHT22;29781;49.480;8.512;2022-09-09T13:46:35;17.20;99.90
44117;DHT22;29781;49.480;8.512;2022-09-09T13:51:40;17.20;99.90
44117;DHT22;29781;49.480;8.512;2022-09-09T13:54:10;17.20;99.90
44117;DHT22;29781;49.480;8.512;2022-09-09T13:56:38;17.30;99.90
44117;DHT22;29781;49.480;8.512;2022-09-09T13:59:06;17.30;99.90
44117;DHT22;29781;49.480;8.512;2022-09-09T14:01:34;17.40;99.90
44117;DHT22;29781;49.480;8.512;2022-09-09T14:04:00;17.30;99.90
44117;DHT22;29781;49.480;8.512;2022-09-09T14:06:26;17.40;99.90
44117;DHT22;29781;49.480;8.512;2022-09-09T14:08:53;17.40;99.90
44117;DHT22;29781;49.480;8.512;2022-09-09T14:11:20;17.50;99.90
44117;DHT22;29781;49.480;8.512;2022-09-09T14:13:47;17.60;99.90
44117;DHT22;29781;49.480;8.512;2022-09-09T14:16:12;17.80;99.90
44117;DHT22;29781;49.480;8.512;2022-09-09T14:18:39;17.90;99.90
44117;DHT22;29781;49.480;8.512;2022-09-09T14:21:04;18.00;99.90
44117;DHT22;29781;49.480;8.512;2022-09-09T14:23:30;18.00;99.90
44117;DHT22;29781;49.480;8.512;2022-09-09T14:25:57;18.10;99.90
44117;DHT22;29781;49.480;8.512;2022-09-09T14:28:22;18.10;99.90
44117;DHT22;29781;49.480;8.512;2022-09-09T14:30:48;18.10;99.90
44117;DHT22;29781;49.480;8.512;2022-09-09T14:33:15;18.10;99.90
44117;DHT22;29781;49.480;8.512;2022-09-09T14:35:41;18.20;99.90
44117;DHT22;29781;49.480;8.512;2022-09-09T14:38:08;18.30;99.90
44117;DHT22;29781;49.480;8.512;2022-09-09T14:40:35;18.50;99.90
44117;DHT22;29781;49.480;8.512;2022-09-09T14:43:01;18.40;99.90
44117;DHT22;29781;49.480;8.512;2022-09-09T14:45:27;18.30;99.90
44117;DHT22;29781;49.480;8.512;2022-09-09T14:47:53;18.30;99.90
44117;DHT22;29781;49.480;8.512;2022-09-09T14:50:20;18.40;99.90
44117;DHT22;29781;49.480;8.512;2022-09-09T14:52:46;18.50;99.90
44117;DHT22;29781;49.480;8.512;2022-09-09T14:55:12;18.50;99.90
44117;DHT22;29781;49.480;8.512;2022-09-09T14:57:38;18.40;99.90
44117;DHT22;29781;49.480;8.512;2022-09-09T15:00:06;18.50;99.90
44117;DHT22;29781;49.480;8.512;2022-09-09T15:02:33;18.40;99.90
44117;DHT22;29781;49.480;8.512;2022-09-09T15:04:58;18.40;99.90
44117;DHT22;29781;49.480;8.512;2022-09-09T15:07:25;18.40;99.90
44117;DHT22;29781;49.480;8.512;2022-09-09T15:09:51;18.50;99.90
44117;DHT22;29781;49.480;8.512;2022-09-09T15:12:17;18.40;99.90
44117;DHT22;29781;49.480;8.512;2022-09-09T15:14:44;18.40;99.90
44117;DHT22;29781;49.480;8.512;2022-09-09T15:17:10;18.30;99.90
44117;DHT22;29781;49.480;8.512;2022-09-09T15:19:36;18.20;99.90
44117;DHT22;29781;49.480;8.512;2022-09-09T15:22:03;18.00;99.90
44117;DHT22;29781;49.480;8.512;2022-09-09T15:24:34;17.60;99.90
44117;DHT22;29781;49.480;8.512;2022-09-09T15:27:00;17.40;99.90
44117;DHT22;29781;49.480;8.512;2022-09-09T15:29:26;17.10;99.90
44117;DHT22;29781;49.480;8.512;2022-09-09T15:31:54;16.80;99.90
44117;DHT22;29781;49.480;8.512;2022-09-09T15:34:20;16.60;99.90
44117;DHT22;29781;49.480;8.512;2022-09-09T15:36:46;16.50;99.90
44117;DHT22;29781;49.480;8.512;2022-09-09T15:39:14;16.40;99.90
44117;DHT22;29781;49.480;8.512;2022-09-09T15:41:44;16.40;99.90
44117;DHT22;29781;49.480;8.512;2022-09-09T15:44:11;16.40;99.90
44117;DHT22;29781;49.480;8.512;2022-09-09T15:46:46;16.40;99.90
44117;DHT22;29781;49.480;8.512;2022-09-09T15:49:15;16.40;99.90
44117;DHT22;29781;49.480;8.512;2022-09-09T15:51:50;16.50;99.90
44117;DHT22;29781;49.480;8.512;2022-09-09T15:54:18;16.50;99.90
44117;DHT22;29781;49.480;8.512;2022-09-09T15:56:46;16.70;99.90
44117;DHT22;29781;49.480;8.512;2022-09-09T15:59:14;16.80;99.90
44117;DHT22;29781;49.480;8.512;2022-09-09T16:01:40;16.90;99.90
44117;DHT22;29781;49.480;8.512;2022-09-09T16:04:07;17.00;99.90
44117;DHT22;29781;49.480;8.512;2022-09-09T16:06:33;17.20;99.90
44117;DHT22;29781;49.480;8.512;2022-09-09T16:08:59;17.20;99.90
44117;DHT22;29781;49.480;8.512;2022-09-09T16:11:30;17.20;99.90
44117;DHT22;29781;49.480;8.512;2022-09-09T16:13:57;17.10;99.90
44117;DHT22;29781;49.480;8.512;2022-09-09T16:16:26;17.20;99.90
44117;DHT22;29781;49.480;8.512;2022-09-09T16:18:57;17.20;99.90
44117;DHT22;29781;49.480;8.512;2022-09-09T16:21:27;17.20;99.90
44117;DHT22;29781;49.480;8.512;2022-09-09T16:23:58;17.10;99.90
44117;DHT22;29781;49.480;8.512;2022-09-09T16:26:28;17.10;99.90
44117;DHT22;29781;49.480;8.512;2022-09-09T16:28:55;17.10;99.90
44117;DHT22;29781;49.480;8.512;2022-09-09T16:31:23;17.20;99.90
44117;DHT22;29781;49.480;8.512;2022-09-09T16:33:49;17.20;99.90
44117;DHT22;29781;49.480;8.512;2022-09-09T16:36:27;17.20;99.90
44117;DHT22;29781;49.480;8.512;2022-09-09T16:38:54;17.20;99.90
44117;DHT22;29781;49.480;8.512;2022-09-09T16:41:20;17.20;99.90
44117;DHT22;29781;49.480;8.512;2022-09-09T16:43:47;17.10;99.90
44117;DHT22;29781;49.480;8.512;2022-09-09T16:46:16;17.00;99.90
44117;DHT22;29781;49.480;8.512;2022-09-09T16:48:44;17.00;99.90
44117;DHT22;29781;49.480;8.512;2022-09-09T16:51:19;17.10;99.90
44117;DHT22;29781;49.480;8.512;2022-09-09T16:53:45;16.90;99.90
44117;DHT22;29781;49.480;8.512;2022-09-09T16:56:18;16.90;99.90
44117;DHT22;29781;49.480;8.512;2022-09-09T16:58:49;16.80;99.90
44117;DHT22;29781;49.480;8.512;2022-09-09T17:01:15;16.80;99.90
44117;DHT22;29781;49.480;8.512;2022-09-09T17:03:41;16.70;99.90
44117;DHT22;29781;49.480;8.512;2022-09-09T17:06:14;16.70;99.90
44117;DHT22;29781;49.480;8.512;2022-09-09T17:08:41;16.90;99.90
44117;DHT22;29781;49.480;8.512;2022-09-09T17:11:17;17.00;99.90
44117;DHT22;29781;49.480;8.512;2022-09-09T17:13:44;17.10;99.90
44117;DHT22;29781;49.480;8.512;2022-09-09T17:16:11;17.20;99.90
44117;DHT22;29781;49.480;8.512;2022-09-09T17:18:38;17.20;99.90
44117;DHT22;29781;49.480;8.512;2022-09-09T17:21:05;17.20;99.90
44117;DHT22;29781;49.480;8.512;2022-09-09T17:23:33;17.30;99.90
44117;DHT22;29781;49.480;8.512;2022-09-09T17:25:59;17.30;99.90
44117;DHT22;29781;49.480;8.512;2022-09-09T17:28:26;17.20;99.90
44117;DHT22;29781;49.480;8.512;2022-09-09T17:30:57;17.10;99.90
44117;DHT22;29781;49.480;8.512;2022-09-09T17:33:23;17.20;99.90
44117;DHT22;29781;49.480;8.512;2022-09-09T17:35:48;17.20;99.90
44117;DHT22;29781;49.480;8.512;2022-09-09T17:38:14;17.30;99.90
44117;DHT22;29781;49.480;8.512;2022-09-09T17:40:41;17.30;99.90
44117;DHT22;29781;49.480;8.512;2022-09-09T17:43:07;17.30;99.90
44117;DHT22;29781;49.480;8.512;2022-09-09T17:45:33;17.30;99.90
44117;DHT22;29781;49.480;8.512;2022-09-09T17:47:59;17.40;99.90
44117;DHT22;29781;49.480;8.512;2022-09-09T17:50:25;17.40;99.90
44117;DHT22;29781;49.480;8.512;2022-09-09T17:52:50;17.40;99.90
44117;DHT22;29781;49.480;8.512;2022-09-09T17:55:16;17.40;99.90
44117;DHT22;29781;49.480;8.512;2022-09-09T17:57:42;17.40;99.90
44117;DHT22;29781;49.480;8.512;2022-09-09T18:00:08;17.40;99.90
44117;DHT22;29781;49.480;8.512;2022-09-09T18:02:34;17.40;99.90
44117;DHT22;29781;49.480;8.512;2022-09-09T18:05:00;17.30;99.90
44117;DHT22;29781;49.480;8.512;2022-09-09T18:07:26;17.00;99.90